createdAt,value
2022-11-05T00:00:37.784Z,12.30
2022-11-05T00:03:23.316Z,10.13
2022-11-05T00:06:10.061Z,11.63
2022-11-05T00:08:55.275Z,10.50
2022-11-05T00:11:41.842Z,15.27
2022-11-05T00:14:26.610Z,12.60
2022-11-05T00:16:53.141Z,11.77
2022-11-05T00:19:19.702Z,11.73
2022-11-05T00:22:04.656Z,13.40
2022-11-05T00:24:49.407Z,12.63
2022-11-05T00:27:15.932Z,11.43
2022-11-05T00:29:42.404Z,9.70
2022-11-05T00:32:08.936Z,12.73
2022-11-05T00:34:35.583Z,11.60
2022-11-05T00:37:02.067Z,12.77
2022-11-05T00:39:28.727Z,11.90
2022-11-05T00:42:13.672Z,10.37
2022-11-05T00:44:58.837Z,11.97
2022-11-05T00:47:43.727Z,13.53
2022-11-05T00:50:10.939Z,14.93
2022-11-05T00:52:56.146Z,13.23
2022-11-05T00:55:29.267Z,13.77
2022-11-05T00:57:56.826Z,12.97
2022-11-05T01:00:25.058Z,9.47
2022-11-05T01:02:51.751Z,14.27
2022-11-05T01:05:18.427Z,11.23
2022-11-05T01:07:44.994Z,11.90
2022-11-05T01:10:11.486Z,11.63
2022-11-05T01:12:37.964Z,11.20
2022-11-05T01:15:04.926Z,13.97
2022-11-05T01:17:31.387Z,15.57
2022-11-05T01:19:57.829Z,11.90
2022-11-05T01:22:24.382Z,13.10
2022-11-05T01:24:50.877Z,14.07
2022-11-05T01:27:17.467Z,11.17
2022-11-05T01:29:43.961Z,12.57
2022-11-05T01:32:10.527Z,9.43
2022-11-05T01:34:37.126Z,10.47
2022-11-05T01:37:03.690Z,9.07
2022-11-05T01:39:30.389Z,10.43
2022-11-05T01:41:58.710Z,11.83
2022-11-05T01:44:50.070Z,11.20
2022-11-05T01:47:36.802Z,11.10
2022-11-05T01:50:40.570Z,9.90
2022-11-05T01:53:22.278Z,10.37
2022-11-05T01:56:03.720Z,11.70
2022-11-05T01:58:39.147Z,9.90
2022-11-05T02:01:05.797Z,11.23
2022-11-05T02:03:32.392Z,15.03
2022-11-05T02:06:01.162Z,9.10
2022-11-05T02:08:46.356Z,10.83
2022-11-05T02:11:14.495Z,9.87
2022-11-05T02:13:41.010Z,12.10
2022-11-05T02:16:30.872Z,13.60
2022-11-05T02:19:06.682Z,13.07
2022-11-05T02:22:11.705Z,9.90
2022-11-05T02:24:49.989Z,12.37
2022-11-05T02:27:28.207Z,11.43
2022-11-05T02:30:09.761Z,11.77
2022-11-05T02:32:36.309Z,12.90
2022-11-05T02:35:21.506Z,11.70
2022-11-05T02:37:58.767Z,10.43
2022-11-05T02:40:31.011Z,14.83
2022-11-05T02:43:21.416Z,9.90
2022-11-05T02:45:50.845Z,10.90
2022-11-05T02:48:30.663Z,10.60
2022-11-05T02:51:23.531Z,12.70
2022-11-05T02:53:56.079Z,15.27
2022-11-05T02:56:25.910Z,10.73
2022-11-05T02:58:52.405Z,12.77
2022-11-05T03:01:19.122Z,12.90
2022-11-05T03:03:47.818Z,12.23
2022-11-05T03:06:17.284Z,15.17
2022-11-05T03:09:00.608Z,14.83
2022-11-05T03:11:29.203Z,10.93
2022-11-05T03:13:55.653Z,12.50
2022-11-05T03:16:30.210Z,17.97
2022-11-05T03:19:13.069Z,14.90
2022-11-05T03:21:53.643Z,11.30
2022-11-05T03:24:47.428Z,14.07
2022-11-05T03:27:15.746Z,16.10
2022-11-05T03:29:53.363Z,16.90
2022-11-05T03:32:20.860Z,11.97
2022-11-05T03:34:50.498Z,15.93
2022-11-05T03:37:20.600Z,14.43
2022-11-05T03:39:50.539Z,11.53
2022-11-05T03:42:18.750Z,9.63
2022-11-05T03:44:48.534Z,10.57
2022-11-05T03:47:18.619Z,13.27
2022-11-05T03:50:20.664Z,10.73
2022-11-05T03:52:56.435Z,13.90
2022-11-05T03:55:25.418Z,13.80
2022-11-05T03:57:53.975Z,15.10
2022-11-05T04:00:21.712Z,15.43
2022-11-05T04:02:48.404Z,11.47
2022-11-05T04:05:15.235Z,14.30
2022-11-05T04:08:01.758Z,13.37
2022-11-05T04:10:46.595Z,13.10
2022-11-05T04:13:24.889Z,13.27
2022-11-05T04:16:11.864Z,17.63
2022-11-05T04:18:38.567Z,13.60
2022-11-05T04:21:24.803Z,13.03
2022-11-05T04:24:09.710Z,12.07
2022-11-05T04:26:37.039Z,13.67
2022-11-05T04:29:22.349Z,11.60
2022-11-05T04:31:48.937Z,14.97
2022-11-05T04:34:16.278Z,15.37
2022-11-05T04:36:43.096Z,15.57
2022-11-05T04:39:09.633Z,12.53
2022-11-05T04:41:36.111Z,13.43
2022-11-05T04:44:02.752Z,13.33
2022-11-05T04:46:29.215Z,13.70
2022-11-05T04:48:55.704Z,13.57
2022-11-05T04:51:22.326Z,14.63
2022-11-05T04:53:48.885Z,11.30
2022-11-05T04:56:19.165Z,16.83
2022-11-05T04:58:45.919Z,16.30
2022-11-05T05:01:21.172Z,15.87
2022-11-05T05:03:49.342Z,13.70
2022-11-05T05:06:16.535Z,15.33
2022-11-05T05:08:43.352Z,19.30
2022-11-05T05:11:12.449Z,17.90
2022-11-05T05:13:39.086Z,17.67
2022-11-05T05:16:07.735Z,15.10
2022-11-05T05:18:34.469Z,18.03
2022-11-05T05:21:20.391Z,15.83
2022-11-05T05:23:48.299Z,17.47
2022-11-05T05:26:16.061Z,18.83
2022-11-05T05:28:42.613Z,18.27
2022-11-05T05:31:09.324Z,23.10
2022-11-05T05:33:35.964Z,19.37
2022-11-05T05:36:06.983Z,18.50
2022-11-05T05:38:34.901Z,21.87
2022-11-05T05:41:01.352Z,18.20
2022-11-05T05:43:31.519Z,22.77
2022-11-05T05:46:02.302Z,24.50
2022-11-05T05:48:28.914Z,25.00
2022-11-05T05:50:55.371Z,23.70
2022-11-05T05:53:21.866Z,19.47
2022-11-05T05:55:48.378Z,18.90
2022-11-05T05:58:14.979Z,22.47
2022-11-05T06:00:42.087Z,22.83
2022-11-05T06:03:08.827Z,22.20
2022-11-05T06:05:35.439Z,21.37
2022-11-05T06:08:02.016Z,19.47
2022-11-05T06:10:28.538Z,22.23
2022-11-05T06:12:54.976Z,22.70
2022-11-05T06:15:21.507Z,21.53
2022-11-05T06:17:47.989Z,19.10
2022-11-05T06:20:14.636Z,20.33
2022-11-05T06:22:41.143Z,21.80
2022-11-05T06:25:08.517Z,23.50
2022-11-05T06:27:36.849Z,20.63
2022-11-05T06:30:04.903Z,18.90
2022-11-05T06:32:31.668Z,20.10
2022-11-05T06:34:58.122Z,19.40
2022-11-05T06:37:25.184Z,23.00
2022-11-05T06:39:51.805Z,20.70
2022-11-05T06:42:19.204Z,17.63
2022-11-05T06:44:46.198Z,20.10
2022-11-05T06:47:12.685Z,19.23
2022-11-05T06:49:39.387Z,18.97
2022-11-05T06:52:05.854Z,19.27
2022-11-05T06:54:32.305Z,23.37
2022-11-05T06:56:59.109Z,21.07
2022-11-05T06:59:25.582Z,20.13
2022-11-05T07:01:52.172Z,19.60
2022-11-05T07:04:18.677Z,17.93
2022-11-05T07:06:45.149Z,18.33
2022-11-05T07:09:11.637Z,17.17
2022-11-05T07:11:38.123Z,20.00
2022-11-05T07:14:04.627Z,16.73
2022-11-05T07:16:31.184Z,17.87
2022-11-05T07:18:57.700Z,17.73
2022-11-05T07:21:24.169Z,20.40
2022-11-05T07:23:50.780Z,19.23
2022-11-05T07:26:17.250Z,19.47
2022-11-05T07:28:43.830Z,23.37
2022-11-05T07:31:10.286Z,21.43
2022-11-05T07:33:36.967Z,21.27
2022-11-05T07:36:03.772Z,18.23
2022-11-05T07:38:30.282Z,19.37
2022-11-05T07:40:59.376Z,20.50
2022-11-05T07:43:25.951Z,20.03
2022-11-05T07:45:52.420Z,19.17
2022-11-05T07:48:18.980Z,23.33
2022-11-05T07:50:45.555Z,21.60
2022-11-05T07:53:14.224Z,19.53
2022-11-05T07:55:41.831Z,21.67
2022-11-05T07:58:08.960Z,25.80
2022-11-05T08:00:35.588Z,21.60
2022-11-05T08:03:08.107Z,25.63
2022-11-05T08:05:37.739Z,21.87
2022-11-05T08:08:05.083Z,26.40
2022-11-05T08:10:31.726Z,25.97
2022-11-05T08:12:58.314Z,21.30
2022-11-05T08:15:24.883Z,25.47
2022-11-05T08:17:58.836Z,24.13
2022-11-05T08:20:26.364Z,25.43
2022-11-05T08:22:53.759Z,26.00
2022-11-05T08:25:20.414Z,18.10
2022-11-05T08:27:46.907Z,27.80
2022-11-05T08:30:13.428Z,22.40
2022-11-05T08:32:40.035Z,19.40
2022-11-05T08:35:06.779Z,21.30
2022-11-05T08:37:33.441Z,21.50
2022-11-05T08:40:00.047Z,21.30
2022-11-05T08:42:26.580Z,24.10
2022-11-05T08:44:53.104Z,20.27
2022-11-05T08:47:19.605Z,24.97
2022-11-05T08:49:46.165Z,18.73
2022-11-05T08:52:12.728Z,21.47
2022-11-05T08:54:39.279Z,18.57
2022-11-05T08:57:05.755Z,25.70
2022-11-05T08:59:32.288Z,20.70
2022-11-05T09:01:58.921Z,21.03
2022-11-05T09:04:25.455Z,18.53
2022-11-05T09:06:52.044Z,17.93
2022-11-05T09:09:18.582Z,15.97
2022-11-05T09:12:10.661Z,18.67
2022-11-05T09:14:32.041Z,18.97
2022-11-05T09:16:58.619Z,25.03
2022-11-05T09:19:25.139Z,15.60
2022-11-05T09:21:51.714Z,15.80
2022-11-05T09:24:18.170Z,17.13
2022-11-05T09:26:44.750Z,17.70
2022-11-05T09:29:14.359Z,15.90
2022-11-05T09:31:41.534Z,16.87
2022-11-05T09:34:08.027Z,19.20
2022-11-05T09:36:34.546Z,15.30
2022-11-05T09:39:01.206Z,14.77
2022-11-05T09:41:31.269Z,13.10
2022-11-05T09:44:03.948Z,17.57
2022-11-05T09:46:45.899Z,19.00
2022-11-05T09:49:25.135Z,15.13
2022-11-05T09:51:57.081Z,13.70
2022-11-05T09:54:27.690Z,14.80
2022-11-05T09:56:54.705Z,12.70
2022-11-05T09:59:41.743Z,13.37
2022-11-05T10:02:19.664Z,14.47
2022-11-05T10:04:49.187Z,10.23
2022-11-05T10:07:22.323Z,13.57
2022-11-05T10:09:52.439Z,13.80
2022-11-05T10:12:40.868Z,15.13
2022-11-05T10:15:07.643Z,11.37
2022-11-05T10:17:39.179Z,10.57
2022-11-05T10:20:15.578Z,12.63
2022-11-05T10:22:46.625Z,14.47
2022-11-05T10:25:20.631Z,13.50
2022-11-05T10:27:52.334Z,11.73
2022-11-05T10:30:19.006Z,13.70
2022-11-05T10:32:46.399Z,12.80
2022-11-05T10:35:18.514Z,8.97
2022-11-05T10:37:46.722Z,11.50
2022-11-05T10:40:35.772Z,9.20
2022-11-05T10:43:11.349Z,12.57
2022-11-05T10:45:46.158Z,9.40
2022-11-05T10:48:39.415Z,9.90
2022-11-05T10:51:10.104Z,9.03
2022-11-05T10:53:38.652Z,12.27
2022-11-05T10:56:32.824Z,10.33
2022-11-05T10:59:00.783Z,8.47
2022-11-05T11:01:28.815Z,7.93
2022-11-05T11:04:08.170Z,15.80
2022-11-05T11:06:39.323Z,7.70
2022-11-05T11:09:09.389Z,8.17
2022-11-05T11:11:41.461Z,10.03
2022-11-05T11:14:14.243Z,5.00
2022-11-05T11:16:43.328Z,7.93
2022-11-05T11:19:33.041Z,8.83
2022-11-05T11:22:05.617Z,7.80
2022-11-05T11:24:39.266Z,11.23
2022-11-05T11:27:11.274Z,7.13
2022-11-05T11:29:46.456Z,8.10
2022-11-05T11:32:17.946Z,6.90
2022-11-05T11:34:46.894Z,7.40
2022-11-05T11:37:42.200Z,9.80
2022-11-05T11:40:19.775Z,11.43
2022-11-05T11:42:52.260Z,9.30
2022-11-05T11:45:25.008Z,9.53
2022-11-05T11:47:51.783Z,6.77
2022-11-05T11:50:42.453Z,7.47
2022-11-05T11:53:18.355Z,7.37
2022-11-05T11:55:58.664Z,8.43
2022-11-05T11:58:49.184Z,8.23
2022-11-05T12:01:43.817Z,7.43
2022-11-05T12:04:32.457Z,7.67
2022-11-05T12:07:09.425Z,8.33
2022-11-05T12:09:56.101Z,7.10
2022-11-05T12:12:33.129Z,7.77
2022-11-05T12:15:19.907Z,9.97
2022-11-05T12:18:00.489Z,8.33
2022-11-05T12:20:36.188Z,9.40
2022-11-05T12:23:17.847Z,6.47
2022-11-05T12:26:06.061Z,9.60
2022-11-05T12:29:04.631Z,7.13
2022-11-05T12:31:47.777Z,8.57
2022-11-05T12:34:41.030Z,6.70
2022-11-05T12:37:10.600Z,9.00
2022-11-05T12:39:43.053Z,5.40
2022-11-05T12:42:47.225Z,7.50
2022-11-05T12:45:44.869Z,6.37
2022-11-05T12:48:26.525Z,6.10
2022-11-05T12:51:08.393Z,15.67
2022-11-05T12:53:41.481Z,9.33
2022-11-05T12:56:30.352Z,9.23
2022-11-05T12:59:34.874Z,7.13
2022-11-05T13:02:11.122Z,8.70
2022-11-05T13:04:45.410Z,8.37
2022-11-05T13:07:15.209Z,8.10
2022-11-05T13:09:46.742Z,8.40
2022-11-05T13:12:15.627Z,6.57
2022-11-05T13:14:46.335Z,9.93
2022-11-05T13:17:20.101Z,7.57
2022-11-05T13:20:14.471Z,8.10
2022-11-05T13:22:49.551Z,8.53
2022-11-05T13:25:28.589Z,11.43
2022-11-05T13:28:13.945Z,8.43
2022-11-05T13:30:44.207Z,7.90
2022-11-05T13:33:15.135Z,7.27
2022-11-05T13:35:44.751Z,5.83
2022-11-05T13:38:43.426Z,8.03
2022-11-05T13:41:50.104Z,8.33
2022-11-05T13:44:54.344Z,9.23
2022-11-05T13:47:39.055Z,10.43
2022-11-05T13:50:30.650Z,10.10
2022-11-05T13:53:19.025Z,7.50
2022-11-05T13:55:51.812Z,8.13
2022-11-05T13:58:52.058Z,8.80
2022-11-05T14:01:24.772Z,10.37
2022-11-05T14:03:53.198Z,8.13
2022-11-05T14:06:28.801Z,6.73
2022-11-05T14:09:01.276Z,7.13
2022-11-05T14:11:35.650Z,8.77
2022-11-05T14:14:05.077Z,23.00
2022-11-05T14:16:48.410Z,12.17
2022-11-05T14:19:17.975Z,5.30
2022-11-05T14:21:55.110Z,9.63
2022-11-05T14:24:21.521Z,10.00
2022-11-05T14:27:00.414Z,5.87
2022-11-05T14:29:44.097Z,9.17
2022-11-05T14:32:19.727Z,12.33
2022-11-05T14:35:16.384Z,8.70
2022-11-05T14:37:53.578Z,5.30
2022-11-05T14:40:32.684Z,7.57
2022-11-05T14:43:02.030Z,7.93
2022-11-05T14:45:36.301Z,6.23
2022-11-05T14:48:05.952Z,5.17
2022-11-05T14:50:37.571Z,9.27
2022-11-05T14:53:27.317Z,6.43
2022-11-05T14:56:01.435Z,8.10
2022-11-05T14:58:40.888Z,4.53
2022-11-05T15:01:13.549Z,9.20
2022-11-05T15:03:45.829Z,5.83
2022-11-05T15:06:34.247Z,8.60
2022-11-05T15:09:05.747Z,8.23
2022-11-05T15:11:42.425Z,6.10
2022-11-05T15:14:19.806Z,5.63
2022-11-05T15:16:52.800Z,7.13
2022-11-05T15:19:48.966Z,5.23
2022-11-05T15:22:27.151Z,6.07
2022-11-05T15:24:53.900Z,4.83
2022-11-05T15:27:40.823Z,8.70
2022-11-05T15:30:15.669Z,12.33
2022-11-05T15:32:42.282Z,5.53
2022-11-05T15:35:29.721Z,8.63
2022-11-05T15:38:02.143Z,8.30
2022-11-05T15:40:33.086Z,10.67
2022-11-05T15:43:09.212Z,6.60
2022-11-05T15:45:36.085Z,8.20
2022-11-05T15:48:02.671Z,6.50
2022-11-05T15:50:29.633Z,5.30
2022-11-05T15:53:04.868Z,4.67
2022-11-05T15:55:48.743Z,7.33
2022-11-05T15:58:15.615Z,7.00
2022-11-05T16:00:46.833Z,6.40
2022-11-05T16:03:16.618Z,7.87
2022-11-05T16:05:45.500Z,8.60
2022-11-05T16:08:17.240Z,10.03
2022-11-05T16:10:47.919Z,7.03
2022-11-05T16:13:36.682Z,7.83
2022-11-05T16:16:06.466Z,6.03
2022-11-05T16:18:38.729Z,7.20
2022-11-05T16:21:12.000Z,9.27
2022-11-05T16:23:59.919Z,9.50
2022-11-05T16:27:00.490Z,6.60
2022-11-05T16:29:19.254Z,5.73
2022-11-05T16:31:53.774Z,7.50
2022-11-05T16:34:41.608Z,11.97
2022-11-05T16:37:13.985Z,6.93
2022-11-05T16:39:40.814Z,7.07
2022-11-05T16:42:22.490Z,6.47
2022-11-05T16:44:54.986Z,10.80
2022-11-05T16:47:22.310Z,6.07
2022-11-05T16:49:49.216Z,7.80
2022-11-05T16:52:16.069Z,7.17
2022-11-05T16:54:44.145Z,8.10
2022-11-05T16:57:30.109Z,4.83
2022-11-05T16:59:58.240Z,6.03
2022-11-05T17:02:25.524Z,8.60
2022-11-05T17:04:52.350Z,8.80
2022-11-05T17:07:18.841Z,11.17
2022-11-05T17:09:45.352Z,3.37
2022-11-05T17:12:12.433Z,6.20
2022-11-05T17:14:39.118Z,6.20
2022-11-05T17:17:06.091Z,6.40
2022-11-05T17:19:32.871Z,5.40
2022-11-05T17:21:59.391Z,5.50
2022-11-05T17:24:25.885Z,5.37
2022-11-05T17:26:52.338Z,6.83
2022-11-05T17:29:18.839Z,8.80
2022-11-05T17:31:45.326Z,6.03
2022-11-05T17:34:11.924Z,8.10
2022-11-05T17:36:38.364Z,6.30
2022-11-05T17:39:04.993Z,5.80
2022-11-05T17:41:31.452Z,7.10
2022-11-05T17:43:58.395Z,7.30
2022-11-05T17:46:25.126Z,8.13
2022-11-05T17:48:51.746Z,4.37
2022-11-05T17:51:19.080Z,8.80
2022-11-05T17:53:47.249Z,5.73
2022-11-05T17:56:24.587Z,6.93
2022-11-05T17:58:55.845Z,6.50
2022-11-05T18:01:28.642Z,3.83
2022-11-05T18:03:55.789Z,4.73
2022-11-05T18:06:22.320Z,5.50
2022-11-05T18:08:49.004Z,8.77
2022-11-05T18:11:15.901Z,6.20
2022-11-05T18:13:42.677Z,5.47
2022-11-05T18:16:09.400Z,6.47
2022-11-05T18:18:36.079Z,5.90
2022-11-05T18:21:02.535Z,5.37
2022-11-05T18:23:29.152Z,8.77
2022-11-05T18:25:55.673Z,5.13
2022-11-05T18:28:22.268Z,8.43
2022-11-05T18:30:48.818Z,5.10
2022-11-05T18:33:15.559Z,6.07
2022-11-05T18:35:43.605Z,7.67
2022-11-05T18:38:10.341Z,4.83
2022-11-05T18:40:36.912Z,7.87
2022-11-05T18:43:03.469Z,5.47
2022-11-05T18:45:31.711Z,5.93
2022-11-05T18:48:00.403Z,5.27
2022-11-05T18:50:27.480Z,5.07
2022-11-05T18:52:54.250Z,5.50
2022-11-05T18:55:21.158Z,8.23
2022-11-05T18:57:47.722Z,13.80
2022-11-05T19:00:14.773Z,6.97
2022-11-05T19:02:41.591Z,6.47
2022-11-05T19:05:28.606Z,5.43
2022-11-05T19:07:54.963Z,7.27
2022-11-05T19:10:21.520Z,7.20
2022-11-05T19:12:48.198Z,8.27
2022-11-05T19:15:14.689Z,6.03
2022-11-05T19:17:41.278Z,6.13
2022-11-05T19:20:09.305Z,5.97
2022-11-05T19:22:35.967Z,6.30
2022-11-05T19:25:02.609Z,6.90
2022-11-05T19:27:29.201Z,4.10
2022-11-05T19:29:55.730Z,6.53
2022-11-05T19:32:22.536Z,6.47
2022-11-05T19:34:49.046Z,11.33
2022-11-05T19:37:15.903Z,8.10
2022-11-05T19:39:43.440Z,6.63
2022-11-05T19:42:09.895Z,6.43
2022-11-05T19:44:36.465Z,8.47
2022-11-05T19:47:03.115Z,5.93
2022-11-05T19:49:29.677Z,6.07
2022-11-05T19:51:56.430Z,5.20
2022-11-05T19:54:23.095Z,5.60
2022-11-05T19:56:50.718Z,8.03
2022-11-05T19:59:17.439Z,7.93
2022-11-05T20:01:44.084Z,8.83
2022-11-05T20:04:12.111Z,9.70
2022-11-05T20:06:40.182Z,7.80
2022-11-05T20:09:25.801Z,9.53
2022-11-05T20:11:56.680Z,12.57
2022-11-05T20:14:24.876Z,6.90
2022-11-05T20:16:51.853Z,7.20
2022-11-05T20:19:21.820Z,5.90
2022-11-05T20:21:49.153Z,8.00
2022-11-05T20:24:22.392Z,6.97
2022-11-05T20:26:50.269Z,8.47
2022-11-05T20:29:16.872Z,10.03
2022-11-05T20:31:43.530Z,9.50
2022-11-05T20:34:10.562Z,10.53
2022-11-05T20:36:37.147Z,9.03
2022-11-05T20:39:03.998Z,9.50
2022-11-05T20:44:16.841Z,9.87
2022-11-05T20:46:43.321Z,12.17
2022-11-05T20:49:09.974Z,10.40
2022-11-05T20:51:36.586Z,8.13
2022-11-05T20:54:03.945Z,10.77
2022-11-05T20:56:32.774Z,8.27
2022-11-05T20:59:00.298Z,7.93
2022-11-05T21:01:29.579Z,6.70
2022-11-05T21:03:56.529Z,7.37
2022-11-05T21:06:23.373Z,9.00
2022-11-05T21:08:51.083Z,7.87
2022-11-05T21:11:18.585Z,8.70
2022-11-05T21:13:45.672Z,8.87
2022-11-05T21:16:17.715Z,8.53
2022-11-05T21:18:45.055Z,7.43
2022-11-05T21:21:16.318Z,11.97
2022-11-05T21:23:43.185Z,6.40
2022-11-05T21:26:13.402Z,7.23
2022-11-05T21:28:40.775Z,7.33
2022-11-05T21:31:08.916Z,7.13
2022-11-05T21:33:35.737Z,8.53
2022-11-05T21:36:08.049Z,9.30
2022-11-05T21:38:34.642Z,8.83
2022-11-05T21:41:02.860Z,7.23
2022-11-05T21:43:29.464Z,6.27
2022-11-05T21:45:56.031Z,7.83
2022-11-05T21:48:22.634Z,8.47
2022-11-05T21:51:11.341Z,8.03
2022-11-05T21:53:57.923Z,9.13
2022-11-05T21:56:44.600Z,11.40
2022-11-05T21:59:32.451Z,9.13
2022-11-05T22:02:02.560Z,8.27
2022-11-05T22:04:33.623Z,8.17
2022-11-05T22:07:00.415Z,10.57
2022-11-05T22:09:27.226Z,9.60
2022-11-05T22:11:54.269Z,9.50
2022-11-05T22:14:21.392Z,10.87
2022-11-05T22:16:47.949Z,10.53
2022-11-05T22:19:14.616Z,8.80
2022-11-05T22:21:41.563Z,8.13
2022-11-05T22:24:08.764Z,7.60
2022-11-05T22:26:36.046Z,7.43
2022-11-05T22:29:02.530Z,6.90
2022-11-05T22:31:34.737Z,9.67
2022-11-05T22:34:03.086Z,10.90
2022-11-05T22:36:29.636Z,10.03
2022-11-05T22:38:56.221Z,10.47
2022-11-05T22:41:22.789Z,11.93
2022-11-05T22:43:49.765Z,14.80
2022-11-05T22:46:20.202Z,9.80
2022-11-05T22:48:47.028Z,6.73
2022-11-05T22:51:15.362Z,11.00
2022-11-05T22:53:42.485Z,10.47
2022-11-05T22:56:11.635Z,11.00
2022-11-05T22:58:38.441Z,10.53
2022-11-05T23:01:07.143Z,9.47
2022-11-05T23:03:34.458Z,4.90
2022-11-05T23:06:04.906Z,12.07
2022-11-05T23:08:50.550Z,8.63
2022-11-05T23:11:38.567Z,10.63
2022-11-05T23:14:07.297Z,10.43
2022-11-05T23:16:52.618Z,12.03
2022-11-05T23:19:38.111Z,8.63
2022-11-05T23:22:24.874Z,8.40
2022-11-05T23:24:51.418Z,11.47
2022-11-05T23:27:17.941Z,11.37
2022-11-05T23:29:44.771Z,8.50
2022-11-05T23:32:27.123Z,7.47
2022-11-05T23:34:56.795Z,7.57
2022-11-05T23:37:44.273Z,11.77
2022-11-05T23:40:15.539Z,7.27
2022-11-05T23:43:01.645Z,8.60
2022-11-05T23:45:47.310Z,9.83
2022-11-05T23:48:18.601Z,10.67
2022-11-05T23:51:06.665Z,11.13
2022-11-05T23:53:35.182Z,9.50
2022-11-05T23:56:13.096Z,8.90
2022-11-05T23:58:40.474Z,7.63
